Time;durP1;ratioP1;P1;durP2;ratioP2;P2;SDS_P1;SDS_P2;PMS_P1;PMS_P2;Temp;Humidity;BMP_temperature;BMP_pressure;BME280_temperature;BME280_humidity;BME280_pressure;Samples;Min_cycle;Max_cycle;Signal;HPM_P1;HPM_P2
2022/04/18 00:00:11;;;;;;;0.10;0.10;;;12.10;90.50;12.10;101897.00;;;;5096720;28;20192;-67
2022/04/18 00:02:37;;;;;;;0.10;0.10;;;12.10;90.60;12.30;101892.00;;;;5097602;28;20184;-67
2022/04/18 00:05:05;;;;;;;0.40;0.40;;;12.20;90.60;12.30;101901.00;;;;5096376;28;20568;-67
2022/04/18 00:07:37;;;;;;;0.20;0.20;;;12.20;90.60;12.50;101836.00;;;;5115265;28;20187;-68
2022/04/18 00:10:07;;;;;;;0.17;0.17;;;12.30;90.60;12.20;101853.00;;;;5114890;28;20184;-68
2022/04/18 00:12:36;;;;;;;0.20;0.20;;;12.20;90.60;12.30;101880.00;;;;5115394;28;20787;-68
2022/04/18 00:15:07;;;;;;;0.20;0.20;;;12.20;90.70;12.20;101877.00;;;;5097115;28;20187;-67
2022/04/18 00:17:36;;;;;;;0.13;0.13;;;12.20;90.70;12.30;101876.00;;;;5096968;28;20192;-69
2022/04/18 00:20:05;;;;;;;0.10;0.10;;;12.10;90.80;12.10;101879.00;;;;5096592;28;20186;-68
2022/04/18 00:22:35;;;;;;;0.30;0.30;;;12.10;90.90;12.00;101883.00;;;;5114268;28;20184;-68
2022/04/18 00:25:03;;;;;;;0.10;0.10;;;12.00;91.10;12.00;101880.00;;;;5115181;28;20255;-68
2022/04/18 00:27:29;;;;;;;0.50;0.50;;;12.00;91.20;12.20;101856.00;;;;5096471;28;20191;-69
2022/04/18 00:29:57;;;;;;;0.10;0.10;;;12.00;91.40;12.00;101879.00;;;;5115877;28;20176;-69
2022/04/18 00:32:24;;;;;;;0.10;0.10;;;11.90;91.40;12.10;101880.00;;;;5097090;28;20617;-69
2022/04/18 00:34:52;;;;;;;0.10;0.10;;;12.00;91.50;12.00;101879.00;;;;5096719;28;20188;-69
2022/04/18 00:37:26;;;;;;;0.20;0.20;;;11.90;91.60;12.20;101880.00;;;;5114197;28;20211;-68
2022/04/18 00:39:52;;;;;;;0.10;0.10;;;11.90;91.80;11.80;101875.00;;;;5098337;28;20179;-68
2022/04/18 00:42:18;;;;;;;0.10;0.10;;;11.80;92.00;11.80;101878.00;;;;5096207;28;20253;-68
2022/04/18 00:44:47;;;;;;;0.17;0.17;;;11.70;92.30;12.10;101879.00;;;;5113878;28;20182;-68
2022/04/18 00:47:15;;;;;;;0.30;0.30;;;11.70;92.60;12.30;101845.00;;;;5096022;28;20267;-68
2022/04/18 00:49:41;;;;;;;0.10;0.10;;;11.70;92.70;12.20;101825.00;;;;5096342;28;20232;-68
2022/04/18 00:52:10;;;;;;;0.10;0.10;;;11.70;92.70;11.90;101881.00;;;;5112175;28;20205;-68
2022/04/18 00:54:44;;;;;;;0.20;0.20;;;11.60;92.80;11.50;101877.00;;;;5112321;28;20227;-68
2022/04/18 00:57:14;;;;;;;0.20;0.20;;;11.40;93.10;11.50;101838.00;;;;5095465;28;20232;-68
2022/04/18 00:59:44;;;;;;;0.20;0.20;;;11.40;93.50;11.40;101876.00;;;;5113970;28;20181;-68
2022/04/18 01:02:13;;;;;;;0.20;0.20;;;11.30;93.60;11.30;101881.00;;;;5114756;28;20194;-68
2022/04/18 01:04:42;;;;;;;0.10;0.10;;;11.20;94.00;11.40;101857.00;;;;5096437;28;20180;-68
2022/04/18 01:07:09;;;;;;;0.93;0.93;;;11.20;94.20;11.50;101871.00;;;;5114008;28;20202;-68
2022/04/18 01:09:35;;;;;;;0.10;0.10;;;11.20;94.50;11.20;101862.00;;;;5113975;28;20163;-68
2022/04/18 01:12:01;;;;;;;0.20;0.20;;;11.10;94.90;11.60;101860.00;;;;5095566;28;20422;-68
2022/04/18 01:14:36;;;;;;;0.10;0.10;;;11.20;95.00;11.50;101840.00;;;;5113622;28;20182;-68
2022/04/18 01:17:07;;;;;;;0.30;0.30;;;11.10;95.40;11.30;101860.00;;;;5097366;28;20187;-68
2022/04/18 01:19:39;;;;;;;0.10;0.10;;;11.10;95.50;11.40;101843.00;;;;5096875;28;20665;-68
2022/04/18 01:22:06;;;;;;;0.10;0.10;;;11.10;96.00;11.40;101849.00;;;;5096900;28;20260;-68
2022/04/18 01:30:04;;;;;;;0.20;0.20;;;11.10;96.50;11.60;101863.00;;;;5113393;28;20649;-67
2022/04/18 01:32:30;;;;;;;0.20;0.20;;;11.20;96.70;11.40;101812.00;;;;5096240;28;20248;-68
2022/04/18 01:35:07;;;;;;;0.20;0.20;;;11.10;96.80;11.60;101855.00;;;;5113125;28;20226;-68
2022/04/18 01:37:42;;;;;;;0.13;0.13;;;11.10;96.90;11.50;101870.00;;;;5095667;28;20221;-68
2022/04/18 01:40:13;;;;;;;0.20;0.20;;;11.10;97.10;11.40;101860.00;;;;5096781;28;20221;-68
2022/04/18 01:42:45;;;;;;;0.20;0.20;;;11.00;97.50;11.30;101849.00;;;;5096192;28;20533;-67
2022/04/18 01:45:11;;;;;;;0.33;0.33;;;11.00;98.10;11.30;101842.00;;;;5114467;28;20176;-68
2022/04/18 01:47:37;;;;;;;0.20;0.20;;;11.00;98.40;11.50;101834.00;;;;5095395;28;20191;-68
2022/04/18 01:50:04;;;;;;;4.60;0.90;;;10.90;98.80;11.20;101834.00;;;;5096220;28;20183;-68
2022/04/18 01:52:30;;;;;;;0.20;0.20;;;10.90;99.40;11.00;101843.00;;;;5112975;28;20662;-68
2022/04/18 01:54:58;;;;;;;0.30;0.30;;;10.80;99.90;10.80;101825.00;;;;5095935;28;20182;-68
2022/04/18 01:57:24;;;;;;;0.20;0.20;;;10.60;99.90;10.90;101834.00;;;;5096267;28;20281;-67
2022/04/18 01:59:58;;;;;;;0.20;0.20;;;10.50;99.90;11.20;101829.00;;;;5095624;28;20627;-68
2022/04/18 02:02:27;;;;;;;0.20;0.20;;;10.60;99.90;11.20;101825.00;;;;5112639;28;20194;-68
2022/04/18 02:04:55;;;;;;;0.20;0.20;;;10.70;99.90;10.80;101828.00;;;;5095763;28;20188;-68
2022/04/18 02:07:26;;;;;;;0.10;0.10;;;10.60;99.90;10.60;101818.00;;;;5094891;28;20175;-68
2022/04/18 02:09:52;;;;;;;0.10;0.10;;;10.40;99.90;10.60;101833.00;;;;5114055;28;20178;-68
2022/04/18 02:12:18;;;;;;;0.20;0.20;;;10.30;99.90;10.50;101824.00;;;;5112563;28;20199;-69
2022/04/18 02:14:44;;;;;;;0.10;0.10;;;10.20;99.90;10.40;101826.00;;;;5095289;28;20183;-68
2022/04/18 02:17:16;;;;;;;0.50;0.50;;;10.20;99.90;10.30;101828.00;;;;5095549;28;20535;-68
2022/04/18 02:19:44;;;;;;;0.20;0.20;;;10.10;99.90;10.00;101835.00;;;;5096139;28;20187;-68
2022/04/18 02:22:13;;;;;;;0.20;0.20;;;10.00;99.90;10.10;101829.00;;;;5112588;28;20180;-69
2022/04/18 02:24:46;;;;;;;0.10;0.10;;;9.90;99.90;10.10;101838.00;;;;5112183;28;20267;-69
2022/04/18 02:27:19;;;;;;;0.13;0.13;;;9.90;99.90;10.30;101830.00;;;;5112103;28;20172;-69
2022/04/18 02:29:45;;;;;;;0.20;0.20;;;10.00;99.90;9.90;101808.00;;;;5095744;28;20245;-68
2022/04/18 02:34:58;;;;;;;0.30;0.30;;;9.90;99.90;10.30;101829.00;;;;5112240;28;20619;-68
2022/04/18 02:37:24;;;;;;;0.10;0.10;;;9.90;99.90;9.90;101828.00;;;;5094426;28;20229;-68
2022/04/18 02:39:59;;;;;;;0.43;0.43;;;9.80;99.90;9.90;101822.00;;;;5095409;28;20192;-68
2022/04/18 02:42:27;;;;;;;0.20;0.20;;;9.70;99.90;9.80;101815.00;;;;5112163;28;20226;-69
2022/04/18 02:44:53;;;;;;;0.20;0.20;;;9.70;99.90;10.10;101820.00;;;;5112386;28;20180;-68
2022/04/18 02:47:19;;;;;;;7.33;4.13;;;9.80;99.90;9.60;101821.00;;;;5111403;28;20173;-69
2022/04/18 02:49:50;;;;;;;0.17;0.17;;;9.60;99.90;9.80;101818.00;;;;5095303;28;20186;-68
2022/04/18 02:52:24;;;;;;;0.10;0.10;;;9.60;99.90;9.60;101811.00;;;;5095247;28;20229;-69
2022/04/18 02:54:50;;;;;;;0.30;0.30;;;9.60;99.90;10.00;101806.00;;;;5111933;28;20180;-69
2022/04/18 02:57:18;;;;;;;0.20;0.20;;;9.70;99.90;10.10;101809.00;;;;5095277;28;20180;-69
2022/04/18 02:59:44;;;;;;;2.67;2.57;;;9.80;99.90;9.50;101809.00;;;;5111202;28;20203;-69
2022/04/18 03:02:10;;;;;;;0.20;0.20;;;9.70;99.90;9.60;101798.00;;;;5113169;28;20268;-69
2022/04/18 03:04:41;;;;;;;0.20;0.20;;;9.60;99.90;9.60;101809.00;;;;5094334;28;20681;-69
2022/04/18 03:07:10;;;;;;;0.20;0.20;;;9.50;99.90;9.60;101808.00;;;;5112208;28;20177;-69
2022/04/18 03:09:38;;;;;;;0.20;0.20;;;9.50;99.90;10.00;101758.00;;;;5112714;28;20177;-69
2022/04/18 03:12:06;;;;;;;0.33;0.33;;;9.60;99.90;9.90;101808.00;;;;5094785;28;20211;-69
2022/04/18 03:14:32;;;;;;;0.20;0.20;;;9.70;99.90;9.60;101751.00;;;;5094947;28;20538;-69
2022/04/18 03:16:59;;;;;;;0.30;0.30;;;9.60;99.90;9.70;101803.00;;;;5111459;28;20615;-69
2022/04/18 03:19:28;;;;;;;0.50;0.50;;;9.50;99.90;9.90;101801.00;;;;5097674;28;20204;-69
2022/04/18 03:21:53;;;;;;;0.20;0.20;;;9.60;99.90;9.70;101806.00;;;;5098971;28;20188;-69
2022/04/18 03:24:25;;;;;;;0.20;0.20;;;9.60;99.90;9.80;101803.00;;;;5099051;28;20221;-69
2022/04/18 03:26:56;;;;;;;0.20;0.20;;;9.60;99.90;9.80;101806.00;;;;5099321;28;20185;-69
2022/04/18 03:29:28;;;;;;;0.20;0.20;;;9.70;99.90;9.40;101765.00;;;;5115288;28;20215;-69
2022/04/18 03:31:57;;;;;;;0.20;0.20;;;9.50;99.90;9.30;101812.00;;;;5097994;28;20208;-69
2022/04/18 03:34:29;;;;;;;0.20;0.20;;;9.40;99.90;9.30;101820.00;;;;5098187;28;20203;-69
2022/04/18 03:39:53;;;;;;;0.20;0.20;;;9.40;99.90;9.60;101815.00;;;;5115811;28;20233;-68
2022/04/18 03:42:33;;;;;;;0.20;0.20;;;9.50;99.90;10.10;101823.00;;;;5115485;28;20631;-69
2022/04/18 03:45:05;;;;;;;0.20;0.20;;;9.60;99.90;10.30;101832.00;;;;5097323;28;20276;-68
2022/04/18 03:47:34;;;;;;;0.20;0.20;;;9.80;99.90;10.30;101829.00;;;;5098921;28;20299;-68
2022/04/18 03:50:02;;;;;;;0.23;0.23;;;9.80;99.90;9.80;101834.00;;;;5098634;28;20210;-68
2022/04/18 03:52:31;;;;;;;0.20;0.20;;;9.70;99.90;9.80;101830.00;;;;5097587;28;20559;-68
2022/04/18 03:54:57;;;;;;;0.50;0.50;;;9.50;99.90;10.00;101819.00;;;;5098180;28;20233;-68
2022/04/18 03:57:23;;;;;;;0.17;0.17;;;9.50;99.90;10.00;101817.00;;;;5098233;28;20184;-68
2022/04/18 03:59:49;;;;;;;0.70;0.70;;;9.60;99.90;9.80;101822.00;;;;5097683;28;20543;-68
2022/04/18 04:02:18;;;;;;;0.60;0.60;;;9.50;99.90;9.80;101779.00;;;;5098182;28;20278;-69
2022/04/18 04:04:49;;;;;;;0.20;0.20;;;9.50;99.90;9.80;101806.00;;;;5097090;28;20207;-69
2022/04/18 04:07:18;;;;;;;0.20;0.20;;;9.40;99.90;9.50;101810.00;;;;5114882;28;20177;-69
2022/04/18 04:09:47;;;;;;;0.20;0.20;;;9.40;99.90;9.60;101809.00;;;;5114815;28;20175;-69
2022/04/18 04:12:23;;;;;;;0.20;0.20;;;9.30;99.90;9.30;101807.00;;;;5096996;28;20215;-69
2022/04/18 04:15:00;;;;;;;0.20;0.20;;;9.20;99.90;9.20;101800.00;;;;5098129;28;20177;-68
2022/04/18 04:17:27;;;;;;;0.30;0.30;;;9.00;99.90;9.20;101787.00;;;;5114872;28;20168;-69
2022/04/18 04:19:58;;;;;;;0.20;0.20;;;9.00;99.90;9.20;101788.00;;;;5113814;28;20203;-69
2022/04/18 04:22:29;;;;;;;0.20;0.20;;;9.00;99.90;9.30;101796.00;;;;5114731;28;20192;-69
2022/04/18 04:24:55;;;;;;;0.20;0.20;;;9.10;99.90;9.40;101802.00;;;;5114893;28;20168;-69
2022/04/18 04:27:21;;;;;;;0.20;0.20;;;9.10;99.90;9.60;101791.00;;;;5097845;28;20173;-69
2022/04/18 04:29:49;;;;;;;2.10;0.60;;;9.20;99.90;9.50;101794.00;;;;5114731;28;20209;-70
2022/04/18 04:32:18;;;;;;;0.20;0.20;;;9.20;99.90;9.30;101782.00;;;;5114285;28;20328;-70
2022/04/18 04:34:46;;;;;;;0.10;0.10;;;9.20;99.90;9.20;101792.00;;;;5114648;28;20258;-70
2022/04/18 04:37:12;;;;;;;0.20;0.20;;;9.20;99.90;9.10;101799.00;;;;5097384;28;20191;-70
2022/04/18 04:39:41;;;;;;;0.20;0.20;;;9.10;99.90;9.20;101780.00;;;;5096317;28;20326;-69
2022/04/18 04:42:17;;;;;;;0.47;0.47;;;9.10;99.90;9.30;101801.00;;;;5114416;28;20536;-70
2022/04/18 04:44:49;;;;;;;0.10;0.10;;;9.10;99.90;9.40;101816.00;;;;5095240;28;20755;-70
2022/04/18 04:47:18;;;;;;;0.20;0.20;;;9.20;99.90;9.40;101807.00;;;;5103726;28;20207;-69
2022/04/18 04:49:46;;;;;;;0.20;0.20;;;9.20;99.90;9.30;101801.00;;;;5110049;28;20196;-69
2022/04/18 04:52:12;;;;;;;0.10;0.10;;;9.20;99.90;9.30;101802.00;;;;5110045;28;20294;-69
2022/04/18 04:54:41;;;;;;;0.20;0.20;;;9.20;99.90;9.40;101800.00;;;;5109511;28;20219;-69
2022/04/18 04:57:12;;;;;;;0.20;0.20;;;9.20;99.90;9.60;101796.00;;;;5110279;28;20204;-69
2022/04/18 04:59:37;;;;;;;0.20;0.20;;;9.30;99.90;9.70;101805.00;;;;5110772;28;20184;-69
2022/04/18 05:02:09;;;;;;;0.20;0.20;;;9.40;99.90;10.50;101819.00;;;;5110445;28;20185;-70
2022/04/18 05:04:37;;;;;;;0.20;0.20;;;9.80;99.90;10.00;101812.00;;;;5109151;28;20547;-67
2022/04/18 05:07:03;;;;;;;0.20;0.20;;;9.80;99.90;10.00;101808.00;;;;5110268;28;20572;-68
2022/04/18 05:09:32;;;;;;;0.20;0.20;;;9.70;99.90;10.00;101802.00;;;;5110098;28;20268;-68
2022/04/18 05:12:06;;;;;;;0.20;0.20;;;9.70;99.90;10.20;101813.00;;;;5109555;28;20263;-68
2022/04/18 05:14:35;;;;;;;0.30;0.30;;;9.80;99.90;10.00;101802.00;;;;5110019;28;20268;-67
2022/04/18 05:17:02;;;;;;;0.30;0.30;;;9.80;99.90;10.40;101810.00;;;;5110533;28;20193;-68
2022/04/18 05:19:30;;;;;;;0.20;0.20;;;9.90;99.90;10.40;101809.00;;;;5110329;28;20711;-68
2022/04/18 05:21:59;;;;;;;0.20;0.20;;;10.00;99.90;10.00;101812.00;;;;5109775;28;20188;-68
2022/04/18 05:24:30;;;;;;;0.20;0.20;;;10.10;99.90;10.50;101811.00;;;;5109866;28;20622;-68
2022/04/18 05:26:56;;;;;;;0.30;0.30;;;10.30;99.90;11.80;101813.00;;;;5093107;28;20186;-68
2022/04/18 05:29:22;;;;;;;0.17;0.17;;;11.10;99.90;12.30;101816.00;;;;5110108;28;20177;-68
2022/04/18 05:31:50;;;;;;;0.13;0.13;;;11.80;99.90;13.30;101809.00;;;;5093997;28;20209;-68
2022/04/18 05:34:18;;;;;;;0.20;0.20;;;12.60;99.90;14.20;101797.00;;;;5109882;28;20216;-68
2022/04/18 05:36:49;;;;;;;0.10;0.10;;;13.30;99.90;15.30;101773.00;;;;5108860;28;20202;-68
2022/04/18 05:39:16;;;;;;;0.10;0.10;;;14.30;99.90;14.70;101787.00;;;;5110031;28;20267;-68
2022/04/18 05:41:42;;;;;;;0.40;0.40;;;14.50;99.90;15.10;101785.00;;;;5109224;28;20626;-68
2022/04/18 05:44:13;;;;;;;0.10;0.10;;;14.80;99.90;13.70;101795.00;;;;5108964;28;20180;-68
2022/04/18 05:46:49;;;;;;;0.20;0.20;;;14.40;99.90;12.90;101805.00;;;;5109972;28;20582;-68
2022/04/18 05:49:15;;;;;;;3.00;0.73;;;13.50;99.90;14.10;101799.00;;;;5109795;28;20170;-68
2022/04/18 05:51:47;;;;;;;0.33;0.33;;;13.60;99.90;13.70;101803.00;;;;5109083;28;20673;-68
2022/04/18 05:54:21;;;;;;;0.20;0.20;;;13.60;99.90;13.80;101799.00;;;;5109276;28;20181;-68
2022/04/18 05:56:47;;;;;;;0.20;0.20;;;14.10;99.90;14.10;101791.00;;;;5109656;28;20218;-68
2022/04/18 05:59:16;;;;;;;0.10;0.10;;;13.90;99.90;13.90;101798.00;;;;5108545;28;20208;-68
2022/04/18 06:01:47;;;;;;;0.20;0.20;;;13.90;99.90;14.40;101783.00;;;;5108455;28;20590;-68
2022/04/18 06:04:18;;;;;;;0.17;0.17;;;14.20;99.90;14.90;101788.00;;;;5109693;28;20243;-68
2022/04/18 06:06:46;;;;;;;0.10;0.10;;;14.30;99.90;15.40;101768.00;;;;5108996;28;20181;-68
2022/04/18 06:09:12;;;;;;;0.10;0.10;;;14.80;99.90;15.50;101775.00;;;;5092187;28;20639;-68
2022/04/18 06:11:41;;;;;;;0.10;0.10;;;15.20;99.70;16.60;101768.00;;;;5109182;28;20559;-68
2022/04/18 06:14:09;;;;;;;0.23;0.23;;;15.80;98.90;16.00;101774.00;;;;5109096;28;20182;-70
2022/04/18 06:16:35;;;;;;;1.07;1.07;;;16.20;96.90;16.50;101766.00;;;;5108699;28;20178;-70
2022/04/18 06:19:01;;;;;;;1.80;1.70;;;16.30;96.20;17.40;101759.00;;;;5109300;28;20668;-70
2022/04/18 06:21:30;;;;;;;0.55;0.55;;;16.90;95.10;17.70;101747.00;;;;5075336;28;20191;-70
2022/04/18 06:23:58;;;;;;;0.10;0.10;;;17.30;93.90;17.10;101752.00;;;;5109303;28;20204;-70
2022/04/18 06:26:30;;;;;;;0.40;0.40;;;17.10;93.40;17.60;101760.00;;;;5107864;28;20176;-70
2022/04/18 06:28:57;;;;;;;0.20;0.20;;;17.40;92.40;17.60;101737.00;;;;5108931;28;20172;-69
2022/04/18 06:31:26;;;;;;;0.10;0.10;;;17.50;91.30;18.00;101752.00;;;;5108912;28;20228;-70
2022/04/18 06:33:52;;;;;;;0.10;0.10;;;17.70;91.10;18.20;101760.00;;;;5108743;28;20227;-67
2022/04/18 06:36:17;;;;;;;0.10;0.10;;;18.00;90.80;18.10;101755.00;;;;5091705;28;20208;-66
2022/04/18 06:38:46;;;;;;;0.20;0.20;;;18.10;89.50;17.90;101758.00;;;;5108252;28;20608;-66
2022/04/18 06:41:12;;;;;;;0.17;0.17;;;18.10;87.80;17.10;101756.00;;;;5091886;28;20230;-68
2022/04/18 06:43:38;;;;;;;0.10;0.10;;;17.40;87.70;16.70;101770.00;;;;5106088;28;20191;-68
2022/04/18 06:46:10;;;;;;;0.30;0.30;;;16.70;88.80;16.60;101769.00;;;;5091461;28;20199;-68
2022/04/18 06:48:38;;;;;;;0.40;0.35;;;16.80;88.80;17.00;101777.00;;;;5092337;28;20624;-68
2022/04/18 06:51:10;;;;;;;0.10;0.10;;;16.60;89.20;15.40;101742.00;;;;5083112;28;20615;-68
2022/04/18 06:53:39;;;;;;;0.10;0.10;;;15.80;90.00;15.80;101787.00;;;;5100312;28;20199;-68
2022/04/18 06:58:54;;;;;;;0.20;0.20;;;15.20;91.00;16.00;101744.00;;;;5115297;28;20283;-68
2022/04/18 07:01:23;;;;;;;0.10;0.10;;;15.40;91.90;15.60;101793.00;;;;5095836;28;20185;-68
2022/04/18 07:03:51;;;;;;;0.10;0.10;;;15.10;92.40;14.70;101805.00;;;;5095210;28;20188;-68
2022/04/18 07:06:23;;;;;;;0.10;0.10;;;14.60;92.90;14.60;101764.00;;;;5095678;28;20174;-68
2022/04/18 07:08:52;;;;;;;0.13;0.13;;;14.30;93.10;14.20;101799.00;;;;5078908;28;20182;-68
2022/04/18 07:11:21;;;;;;;0.10;0.10;;;14.20;92.90;14.40;101811.00;;;;5095403;28;20213;-68
2022/04/18 07:13:59;;;;;;;0.20;0.20;;;14.10;93.50;14.40;101803.00;;;;5081472;28;20189;-68
2022/04/18 07:16:29;;;;;;;0.10;0.10;;;13.90;94.30;14.50;101814.00;;;;5095206;28;20246;-68
2022/04/18 07:19:01;;;;;;;0.17;0.17;;;14.10;94.40;14.80;101774.00;;;;5099222;28;20220;-68
2022/04/18 07:21:30;;;;;;;0.10;0.10;;;14.40;94.40;16.20;101756.00;;;;5115835;28;20660;-68
2022/04/18 07:23:58;;;;;;;0.10;0.10;;;15.30;94.50;16.10;101812.00;;;;5095679;28;20188;-68
2022/04/18 07:26:30;;;;;;;0.43;0.43;;;15.60;94.50;17.10;101796.00;;;;5095485;28;20232;-68
2022/04/18 07:28:56;;;;;;;0.20;0.20;;;16.30;94.00;17.10;101805.00;;;;5094635;28;20256;-68
2022/04/18 07:31:24;;;;;;;0.10;0.10;;;16.40;94.00;16.90;101805.00;;;;5095354;28;20687;-68
2022/04/18 07:33:50;;;;;;;1.10;1.10;;;16.60;94.00;17.60;101811.00;;;;5095003;28;20270;-68
2022/04/18 07:36:21;;;;;;;2.33;0.60;;;17.10;93.80;17.80;101800.00;;;;5096013;28;20178;-68
2022/04/18 07:38:49;;;;;;;0.30;0.30;;;17.40;93.10;17.20;101810.00;;;;5095141;28;20219;-69
2022/04/18 07:41:27;;;;;;;0.10;0.10;;;17.20;93.20;19.20;101799.00;;;;5095160;28;20267;-66
2022/04/18 07:43:55;;;;;;;1.75;0.85;;;18.20;92.80;19.80;101797.00;;;;5095057;28;20172;-69
2022/04/18 07:46:24;;;;;;;0.30;0.30;;;19.10;91.50;16.90;101796.00;;;;5095922;28;20172;-69
2022/04/18 07:48:51;;;;;;;0.10;0.10;;;18.40;90.10;17.90;101798.00;;;;5093953;28;20181;-80
2022/04/18 07:51:32;;;;;;;0.10;0.10;;;17.90;91.30;17.30;101799.00;;;;5094415;28;20200;-75
2022/04/18 07:54:00;;;;;;;1.45;0.95;;;17.80;90.40;18.50;101761.00;;;;5095103;28;20176;-72
2022/04/18 07:56:28;;;;;;;0.10;0.10;;;18.00;89.80;17.10;101796.00;;;;5077260;28;20537;-70
2022/04/18 07:58:55;;;;;;;0.10;0.10;;;17.70;88.20;18.10;101784.00;;;;5094591;28;20173;-71
2022/04/18 08:01:21;;;;;;;0.10;0.10;;;18.00;86.80;19.30;101781.00;;;;5094541;28;20594;-71
2022/04/18 08:03:48;;;;;;;0.15;0.15;;;18.70;84.80;19.20;101776.00;;;;5095848;28;20202;-72
2022/04/18 08:06:17;;;;;;;0.10;0.10;;;19.00;84.10;19.00;101771.00;;;;5094636;28;20188;-74
2022/04/18 08:08:43;;;;;;;0.10;0.10;;;18.90;83.00;19.30;101793.00;;;;5093096;28;20173;-73
2022/04/18 08:11:11;;;;;;;0.25;0.25;;;19.10;82.30;19.80;101782.00;;;;5077466;28;20226;-72
2022/04/18 08:13:39;;;;;;;0.35;0.25;;;19.50;80.50;20.00;101772.00;;;;5094427;28;20188;-73
2022/04/18 08:16:06;;;;;;;0.25;0.25;;;19.60;80.70;20.30;101778.00;;;;5094609;28;20189;-72
2022/04/18 08:18:39;;;;;;;0.10;0.10;;;20.00;79.50;18.80;101783.00;;;;5093989;28;20169;-71
2022/04/18 08:21:06;;;;;;;1.55;0.60;;;19.50;79.50;18.70;101769.00;;;;5094318;28;20172;-70
2022/04/18 08:23:33;;;;;;;0.65;0.65;;;18.80;79.30;19.00;101790.00;;;;5076062;28;20181;-69
2022/04/18 08:25:59;;;;;;;0.10;0.10;;;19.10;79.50;18.70;101781.00;;;;5093998;28;20167;-70
2022/04/18 08:28:26;;;;;;;0.60;0.60;;;18.90;79.70;19.20;101746.00;;;;5093757;28;20181;-70
2022/04/18 08:30:53;;;;;;;0.17;0.17;;;19.10;79.90;18.30;101797.00;;;;5093926;28;20256;-70
2022/04/18 08:33:22;;;;;;;0.30;0.30;;;18.90;79.90;19.00;101757.00;;;;5094502;28;20192;-71
2022/04/18 08:35:51;;;;;;;0.10;0.10;;;18.90;80.70;19.20;101798.00;;;;5093360;28;20182;-67
2022/04/18 08:38:28;;;;;;;0.10;0.10;;;18.70;81.30;18.90;101789.00;;;;5094354;28;20177;-78
2022/04/18 08:41:04;;;;;;;0.10;0.10;;;18.90;81.70;17.90;101782.00;;;;5077263;28;20188;-77
2022/04/18 08:43:30;;;;;;;10.10;1.98;;;18.50;81.40;17.90;101756.00;;;;5093985;28;20218;-68
2022/04/18 08:45:59;;;;;;;0.45;0.45;;;18.10;82.50;17.70;101784.00;;;;5094872;28;20566;-70
2022/04/18 08:53:59;;;;;;;0.10;0.10;;;17.60;85.10;20.30;101744.00;;;;5094183;28;20176;-68
2022/04/18 08:56:31;;;;;;;0.25;0.25;;;19.20;84.20;20.00;101783.00;;;;5093568;28;20173;-68
2022/04/18 08:58:57;;;;;;;0.15;0.15;;;19.70;82.10;20.40;101786.00;;;;5092811;28;20199;-68
2022/04/18 09:01:23;;;;;;;0.10;0.10;;;20.10;81.10;20.70;101783.00;;;;5076372;28;20189;-69
2022/04/18 09:03:51;;;;;;;0.47;0.47;;;20.30;80.90;20.30;101796.00;;;;5094058;28;20177;-65
2022/04/18 09:06:24;;;;;;;0.10;0.10;;;20.40;81.90;20.70;101792.00;;;;5093370;28;20185;-65
2022/04/18 09:08:56;;;;;;;2.15;2.15;;;20.70;79.70;19.70;101787.00;;;;5093078;28;20573;-74
2022/04/18 09:11:37;;;;;;;0.10;0.10;;;20.00;80.20;20.50;101776.00;;;;5093174;28;20263;-77
2022/04/18 09:14:09;;;;;;;0.32;0.32;;;20.40;81.90;20.80;101780.00;;;;5076655;28;20194;-76
2022/04/18 09:16:40;;;;;;;0.10;0.10;;;20.70;79.70;22.00;101769.00;;;;5075234;28;20279;-76
2022/04/18 09:19:11;;;;;;;0.63;0.63;;;21.30;79.20;22.60;101761.00;;;;5076581;28;20175;-70
2022/04/18 09:21:56;;;;;;;0.10;0.10;;;22.10;79.60;22.90;101765.00;;;;5093141;28;20210;-74
2022/04/18 09:24:36;;;;;;;0.10;0.10;;;22.50;77.50;21.00;101767.00;;;;5092658;28;20177;-72
2022/04/18 09:27:06;;;;;;;0.10;0.10;;;22.00;76.50;22.60;101759.00;;;;5076255;28;20196;-72
2022/04/18 09:29:39;;;;;;;0.10;0.10;;;22.20;76.40;23.30;101754.00;;;;5093009;28;20615;-72
2022/04/18 09:32:13;;;;;;;0.20;0.20;;;22.60;76.80;23.80;101756.00;;;;5092958;28;20196;-72
2022/04/18 09:34:42;;;;;;;0.13;0.13;;;23.10;75.30;23.10;101750.00;;;;5093111;28;20636;-71
2022/04/18 09:37:19;;;;;;;0.10;0.10;;;23.00;75.10;21.40;101767.00;;;;5092442;28;20169;-74
2022/04/18 09:39:55;;;;;;;1.98;1.55;;;22.30;71.90;21.40;101723.00;;;;5076074;28;20645;-75
2022/04/18 09:42:28;;;;;;;0.20;0.20;;;21.90;73.00;21.70;101753.00;;;;5075615;28;20685;-75
2022/04/18 09:44:56;;;;;;;0.10;0.10;;;21.60;74.20;18.80;101764.00;;;;5092882;28;20644;-75
2022/04/18 09:47:25;;;;;;;0.20;0.20;;;20.10;74.30;20.30;101780.00;;;;5092974;28;20172;-74
2022/04/18 09:49:52;;;;;;;0.47;0.47;;;20.10;76.10;20.60;101766.00;;;;5076194;28;20582;-75
2022/04/18 09:52:20;;;;;;;3.30;0.68;;;20.40;76.10;20.50;101759.00;;;;5093443;28;20187;-76
2022/04/18 09:54:58;;;;;;;0.35;0.35;;;20.50;75.40;21.50;101757.00;;;;5075377;28;20180;-74
2022/04/18 09:57:27;;;;;;;0.60;0.52;;;21.00;75.80;21.40;101753.00;;;;5091879;28;20173;-79
2022/04/18 09:59:56;;;;;;;0.10;0.10;;;21.40;74.80;20.70;101754.00;;;;5075758;28;20179;-79
2022/04/18 10:02:27;;;;;;;0.32;0.32;;;21.00;73.90;21.60;101758.00;;;;5092357;28;20214;-78
2022/04/18 10:04:53;;;;;;;0.10;0.10;;;21.40;73.90;21.60;101742.00;;;;5092666;28;20187;-78
2022/04/18 10:07:20;;;;;;;0.32;0.32;;;21.50;73.70;21.30;101744.00;;;;5091749;28;20187;-78
2022/04/18 10:09:46;;;;;;;0.20;0.20;;;21.60;73.50;22.90;101741.00;;;;5092157;28;20179;-78
2022/04/18 10:12:16;;;;;;;0.10;0.10;;;22.00;73.70;23.10;101705.00;;;;5091479;28;20185;-75
2022/04/18 10:14:43;;;;;;;0.70;0.55;;;22.60;72.00;23.60;101717.00;;;;5092239;28;20180;-78
2022/04/18 10:17:11;;;;;;;0.10;0.10;;;22.90;72.20;22.50;101738.00;;;;5092958;28;20563;-77
2022/04/18 10:20:20;;;;;;;0.20;0.20;;;22.70;71.30;21.80;101738.00;;;;5075402;28;20177;-87
2022/04/18 10:33:12;;;;;;;0.10;0.10;;;23.00;65.50;22.40;101691.00;;;;5125930;27;21065;-76
2022/04/18 10:35:56;;;;;;;0.10;0.10;;;22.80;64.00;23.60;101700.00;;;;5106253;28;20188;-79
2022/04/18 10:38:26;;;;;;;0.30;0.30;;;23.20;65.90;23.40;101677.00;;;;5106134;28;20192;-76
2022/04/18 10:43:53;;;;;;;0.10;0.10;;;22.30;65.70;21.20;101714.00;;;;5102815;28;20227;-74
2022/04/18 10:46:20;;;;;;;1.90;1.35;;;21.70;61.40;23.20;101698.00;;;;5088528;28;20255;-76
2022/04/18 10:49:01;;;;;;;0.22;0.22;;;22.30;62.60;22.60;101689.00;;;;5089525;28;20223;-75
2022/04/18 10:51:39;;;;;;;0.13;0.13;;;22.90;59.60;21.90;101695.00;;;;5105883;28;20208;-76
2022/04/18 10:54:20;;;;;;;0.10;0.10;;;22.00;61.40;22.70;101657.00;;;;5106014;28;20183;-79
2022/04/18 10:57:11;;;;;;;1.75;0.35;;;22.40;62.40;23.80;101703.00;;;;5089083;28;20705;-72
2022/04/18 10:59:45;;;;;;;0.50;0.50;;;23.10;61.60;23.90;101682.00;;;;5088954;28;20275;-74
2022/04/18 11:02:42;;;;;;;0.10;0.10;;;23.40;61.10;22.90;101712.00;;;;5089114;28;20185;-73
2022/04/18 11:05:08;;;;;;;0.25;0.25;;;23.20;61.30;22.30;101705.00;;;;5105478;28;20708;-73
2022/04/18 11:07:41;;;;;;;0.20;0.20;;;22.50;61.80;23.40;101705.00;;;;5106014;28;20264;-73
2022/04/18 11:10:21;;;;;;;0.20;0.20;;;22.80;61.00;23.90;101669.00;;;;5105477;28;20166;-74
2022/04/18 11:12:47;;;;;;;0.40;0.40;;;23.30;60.70;24.20;101692.00;;;;5105897;28;20209;-73
2022/04/18 11:15:16;;;;;;;0.10;0.10;;;23.60;60.50;24.30;101705.00;;;;5105875;28;20189;-73
2022/04/18 11:17:42;;;;;;;0.30;0.30;;;23.90;59.60;24.20;101707.00;;;;5104887;28;20185;-73
2022/04/18 11:20:33;;;;;;;1.10;0.80;;;24.00;61.00;23.00;101711.00;;;;5105704;28;20177;-73
2022/04/18 11:23:26;;;;;;;0.20;0.20;;;23.80;56.00;22.90;101704.00;;;;5106234;28;20251;-73
2022/04/18 11:26:03;;;;;;;0.30;0.30;;;22.80;58.50;23.20;101704.00;;;;5105181;28;20173;-73
2022/04/18 11:28:39;;;;;;;0.68;0.68;;;22.80;59.10;22.00;101681.00;;;;5087555;28;20187;-73
2022/04/18 11:31:18;;;;;;;0.98;0.60;;;22.70;58.90;22.20;101711.00;;;;5104733;28;20295;-73
2022/04/18 11:33:45;;;;;;;0.93;0.93;;;21.90;60.00;23.10;101712.00;;;;5071616;28;20230;-73